Aviation Digital Data Service (ADDS)

Output produced by METARs form (1145 UTC 25 June 2019)
found at http://www.aviationweather.gov/metar/data/
 
UTAA 251100Z 33010KT 300V360 9999 NSC 39/02 Q1009 R88/70D NOSIG
TAF UTAA 251050Z 2512/2612 02014KT 6000 SCT050 
     TEMPO 2512/2518 06014G24KT 4000 DRDU 
     TEMPO 2518/2602 16010KT
       
UTAT 251100Z 05014G24KT CAVOK 39/03 Q1011 NOSIG
TAF UTAT 251036Z 2512/2612 03016G26KT CAVOK 530009 
     TEMPO 2512/2518 09012KT
       
UTAM 251100Z 02004KT CAVOK 40/08 Q1007 NOSIG
TAF UTAM 251035Z 2511/2612 03014KT CAVOK TX40/2511Z 530009 
     TEMPO 2511/2517 36014G24KT 3000 DRDU SCT050 
     BECMG 2517/2518 02012KT 5000 NSC 
     BECMG 2602/2603 02016KT CAVOK
       
UTAV 251100Z 34012KT 300V360 CAVOK 39/M01 Q1008 NOSIG
TAF UTAV 251030Z 2512/2612 34014KT CAVOK 530005 
     TEMPO 2512/2518 28012G22KT
       
UTAK 251100Z 23012KT CAVOK 41/05 Q1010 NOSIG
TAF UTAK 251030Z 2512/2612 27018KT CAVOK 530009 
     TEMPO 2513/2516 33016G26KT 3000 DRDU 
     TEMPO 2518/2524 VRB04KT